Time;durP1;ratioP1;P1;durP2;ratioP2;P2;SDS_P1;SDS_P2;PMS_P1;PMS_P2;Temp;Humidity;BMP_temperature;BMP_pressure;BME280_temperature;BME280_humidity;BME280_pressure;Samples;Min_cycle;Max_cycle;Signal;HPM_P1;HPM_P2
2023/03/31 00:02:00;;;;;;;10.10;6.40;;;;;;;8.72;90.05;99708.52;111034;1206;139545;-63
2023/03/31 00:04:26;;;;;;;11.00;5.10;;;;;;;8.68;90.11;99719.92;111050;1211;97578;-64
2023/03/31 00:06:53;;;;;;;18.00;6.40;;;;;;;8.64;90.08;99713.39;111143;1206;97629;-64
2023/03/31 00:09:20;;;;;;;11.60;5.80;;;;;;;8.60;89.98;99710.55;110861;1211;140530;-64
2023/03/31 00:11:50;;;;;;;11.70;5.70;;;;;;;8.57;90.04;99706.45;111070;1211;97600;-64
2023/03/31 00:14:16;;;;;;;11.90;5.40;;;;;;;8.52;90.04;99702.76;110956;1206;139965;-63
2023/03/31 00:16:42;;;;;;;10.90;5.80;;;;;;;8.49;90.07;99703.45;110976;1211;97645;-64
2023/03/31 00:19:16;;;;;;;13.00;5.80;;;;;;;8.45;90.08;99702.19;111029;1209;97703;-64
2023/03/31 00:21:43;;;;;;;13.50;5.60;;;;;;;8.45;90.23;99705.27;110911;1209;139613;-63
2023/03/31 00:24:10;;;;;;;15.30;6.80;;;;;;;8.44;90.24;99702.98;111013;1206;97696;-64
2023/03/31 00:26:37;;;;;;;8.90;5.20;;;;;;;8.43;90.20;99695.02;110965;1210;138475;-63
2023/03/31 00:29:05;;;;;;;14.70;5.70;;;;;;;8.42;90.34;99700.44;111144;1210;97663;-62
2023/03/31 00:31:31;;;;;;;9.90;5.60;;;;;;;8.40;90.28;99696.27;111019;1211;97600;-64
2023/03/31 00:33:57;;;;;;;15.40;5.70;;;;;;;8.38;90.45;99692.78;111027;1210;138728;-64
2023/03/31 00:36:27;;;;;;;9.10;4.90;;;;;;;8.37;90.51;99694.08;111127;1208;97614;-64
2023/03/31 00:39:07;;;;;;;9.00;5.10;;;;;;;8.35;90.52;99702.88;111075;1210;139010;-64
2023/03/31 00:41:32;;;;;;;12.60;5.90;;;;;;;8.34;90.54;99704.21;111062;1211;100082;-64
2023/03/31 00:44:21;;;;;;;7.60;5.00;;;;;;;8.32;90.80;99700.02;110841;1211;141045;-63
2023/03/31 00:47:09;;;;;;;8.40;6.00;;;;;;;8.28;90.65;99689.31;110978;1211;97587;-64
2023/03/31 00:49:47;;;;;;;20.40;6.70;;;;;;;8.26;90.56;99698.71;111116;1211;99084;-64
2023/03/31 00:52:20;;;;;;;11.00;5.60;;;;;;;8.23;91.07;99698.31;110926;1210;138081;-65
2023/03/31 00:54:50;;;;;;;10.90;5.60;;;;;;;8.20;90.79;99700.04;111186;1205;100133;-64
2023/03/31 00:57:16;;;;;;;10.50;5.90;;;;;;;8.17;90.64;99702.52;111132;1207;138933;-65
2023/03/31 00:59:49;;;;;;;9.40;5.80;;;;;;;8.14;90.63;99697.64;111020;1211;97641;-65
2023/03/31 01:02:16;;;;;;;13.40;5.90;;;;;;;8.12;90.71;99696.16;110951;1211;140066;-65
2023/03/31 01:04:49;;;;;;;15.90;6.90;;;;;;;8.11;90.74;99684.10;111025;1209;97660;-64
2023/03/31 01:07:21;;;;;;;13.70;6.60;;;;;;;8.09;90.75;99681.35;111264;1207;99332;-66
2023/03/31 01:09:49;;;;;;;10.70;6.10;;;;;;;8.07;90.81;99682.00;110839;1209;140241;-64
2023/03/31 01:12:17;;;;;;;10.40;5.10;;;;;;;8.05;90.81;99691.49;111000;1211;97741;-64
2023/03/31 01:14:43;;;;;;;10.20;5.90;;;;;;;8.04;90.95;99686.96;111034;1209;139551;-63
2023/03/31 01:17:09;;;;;;;9.10;5.80;;;;;;;8.02;91.18;99686.68;111071;1206;98278;-64
2023/03/31 01:19:50;;;;;;;10.50;5.90;;;;;;;8.02;91.15;99681.14;110993;1211;97694;-64
2023/03/31 01:22:36;;;;;;;12.50;5.80;;;;;;;8.00;91.13;99675.55;110887;1211;139937;-64
2023/03/31 01:25:20;;;;;;;9.10;5.40;;;;;;;7.99;91.20;99669.56;111002;1211;97943;-64
2023/03/31 01:27:55;;;;;;;11.30;5.20;;;;;;;7.98;91.20;99663.22;110937;1211;139075;-65
2023/03/31 01:30:50;;;;;;;12.70;5.60;;;;;;;7.97;91.27;99666.84;110970;1211;99923;-64
2023/03/31 01:33:32;;;;;;;10.50;5.00;;;;;;;7.95;91.30;99669.77;110941;1210;139603;-64
2023/03/31 01:36:29;;;;;;;11.90;5.90;;;;;;;7.94;91.27;99672.67;111000;1211;97604;-64
2023/03/31 01:39:27;;;;;;;8.50;5.70;;;;;;;7.92;91.25;99667.79;110892;1208;139364;-64
2023/03/31 01:42:04;;;;;;;11.30;4.90;;;;;;;7.92;91.33;99666.89;111028;1211;110608;-64
2023/03/31 01:44:40;;;;;;;13.30;5.80;;;;;;;7.93;91.32;99661.89;110870;1211;140833;-64
2023/03/31 01:47:17;;;;;;;11.10;5.20;;;;;;;7.92;91.22;99656.05;111040;1211;109190;-64
2023/03/31 01:50:05;;;;;;;14.10;5.40;;;;;;;7.90;91.26;99652.92;111055;1209;97743;-64
2023/03/31 01:52:44;;;;;;;8.40;5.20;;;;;;;7.89;91.29;99653.00;111019;1205;97987;-64
2023/03/31 01:55:33;;;;;;;8.10;5.10;;;;;;;7.87;91.29;99652.02;110987;1209;111745;-64
2023/03/31 01:58:06;;;;;;;10.80;5.20;;;;;;;7.85;91.25;99648.38;110905;1209;138836;-64
2023/03/31 02:00:40;;;;;;;11.90;5.50;;;;;;;7.84;91.30;99651.11;111026;1211;107750;-64
2023/03/31 02:03:20;;;;;;;11.40;5.30;;;;;;;7.82;91.29;99648.48;110924;1208;139557;-64
2023/03/31 02:05:56;;;;;;;14.00;6.20;;;;;;;7.81;91.23;99651.41;111140;1208;96470;-64
2023/03/31 02:08:31;;;;;;;7.30;5.10;;;;;;;7.80;91.30;99647.95;110929;1208;140448;-64
2023/03/31 02:10:57;;;;;;;13.00;5.50;;;;;;;7.79;91.39;99645.86;111078;1211;100024;-65
2023/03/31 02:13:27;;;;;;;8.20;4.80;;;;;;;7.78;91.41;99644.83;111029;1211;97564;-64
2023/03/31 02:15:56;;;;;;;10.20;4.50;;;;;;;7.78;91.34;99645.73;111048;1211;138542;-65
2023/03/31 02:18:26;;;;;;;19.40;5.50;;;;;;;7.78;91.43;99640.57;111101;1221;98243;-64
2023/03/31 02:20:56;;;;;;;11.10;5.40;;;;;;;7.78;91.50;99643.40;110959;1211;139108;-65
2023/03/31 02:23:25;;;;;;;12.20;5.30;;;;;;;7.77;91.44;99634.55;111047;1211;99869;-65
2023/03/31 02:26:05;;;;;;;16.40;6.00;;;;;;;7.76;91.51;99633.02;111130;1211;107946;-64
2023/03/31 02:28:30;;;;;;;10.10;5.70;;;;;;;7.75;91.47;99629.32;111022;1211;98962;-64
2023/03/31 02:31:17;;;;;;;13.30;5.50;;;;;;;7.74;91.53;99627.21;111197;1208;97587;-64
2023/03/31 02:33:43;;;;;;;12.70;6.40;;;;;;;7.75;91.65;99625.23;110883;1211;138568;-64
2023/03/31 02:36:08;;;;;;;9.90;4.70;;;;;;;7.76;91.71;99621.07;111010;1212;97914;-64
2023/03/31 02:38:53;;;;;;;10.50;4.70;;;;;;;7.79;91.79;99614.92;110946;1209;138328;-64
2023/03/31 02:41:19;;;;;;;5.50;4.00;;;;;;;7.81;91.92;99620.49;110985;1208;97573;-64
2023/03/31 02:43:44;;;;;;;8.60;4.80;;;;;;;7.82;91.98;99615.63;111125;1211;98227;-64
2023/03/31 02:46:10;;;;;;;8.60;4.60;;;;;;;7.84;91.93;99617.31;110944;1208;138290;-64
2023/03/31 02:48:44;;;;;;;9.30;4.20;;;;;;;7.85;91.98;99614.08;111048;1211;97652;-64
2023/03/31 02:51:13;;;;;;;9.60;4.20;;;;;;;7.85;91.89;99611.05;111011;1209;138069;-63
2023/03/31 02:54:04;;;;;;;10.20;4.30;;;;;;;7.85;91.82;99611.05;111018;1211;111885;-64
2023/03/31 02:57:04;;;;;;;12.20;4.70;;;;;;;7.83;91.82;99604.70;111041;1211;139719;-63
2023/03/31 02:59:51;;;;;;;8.90;4.20;;;;;;;7.83;92.09;99600.79;111041;1208;106502;-63
2023/03/31 03:02:39;;;;;;;10.80;4.90;;;;;;;7.82;92.00;99601.73;110870;1211;139665;-63
2023/03/31 03:05:20;;;;;;;9.40;5.20;;;;;;;7.82;92.10;99590.55;111100;1211;97672;-65
2023/03/31 03:08:10;;;;;;;11.40;5.50;;;;;;;7.81;91.96;99590.40;111043;1211;111956;-65
2023/03/31 03:11:05;;;;;;;11.80;5.00;;;;;;;7.80;91.84;99586.05;111127;1211;99306;-63
2023/03/31 03:13:55;;;;;;;10.70;4.90;;;;;;;7.78;91.90;99580.97;111029;1206;108025;-63
2023/03/31 03:16:25;;;;;;;13.50;5.50;;;;;;;7.77;91.92;99578.00;110882;1206;139930;-63
2023/03/31 03:18:59;;;;;;;9.10;4.90;;;;;;;7.78;91.94;99577.42;110990;1211;97581;-63
2023/03/31 03:21:25;;;;;;;11.10;4.60;;;;;;;7.79;91.97;99576.16;110884;1211;138263;-63
2023/03/31 03:23:51;;;;;;;9.70;4.40;;;;;;;7.79;91.97;99579.88;111082;1206;97620;-63
2023/03/31 03:26:22;;;;;;;11.70;4.30;;;;;;;7.79;91.99;99579.30;110909;1211;138545;-63
2023/03/31 03:28:48;;;;;;;10.10;4.10;;;;;;;7.80;91.88;99579.09;111046;1211;97681;-63
2023/03/31 03:31:14;;;;;;;8.70;4.10;;;;;;;7.81;91.95;99574.06;111044;1211;97592;-63
2023/03/31 03:33:40;;;;;;;8.40;3.80;;;;;;;7.81;92.02;99580.27;111061;1211;139999;-63
2023/03/31 03:36:07;;;;;;;9.00;4.80;;;;;;;7.82;92.05;99579.16;111145;1221;107302;-63
2023/03/31 03:38:32;;;;;;;8.00;3.80;;;;;;;7.83;91.96;99574.30;110963;1211;140459;-63
2023/03/31 03:40:57;;;;;;;8.70;4.10;;;;;;;7.84;92.04;99576.23;111170;1206;97555;-63
2023/03/31 03:43:23;;;;;;;10.10;4.50;;;;;;;7.86;92.08;99571.15;111036;1212;97655;-63
2023/03/31 03:45:49;;;;;;;10.20;4.20;;;;;;;7.86;92.02;99568.80;110888;1212;138393;-63
2023/03/31 03:48:14;;;;;;;7.60;4.10;;;;;;;7.88;92.07;99566.08;111544;1211;97512;-64
2023/03/31 03:50:40;;;;;;;7.90;3.70;;;;;;;7.89;91.99;99567.80;111011;1211;139440;-63
2023/03/31 03:53:07;;;;;;;5.90;3.70;;;;;;;7.91;92.01;99567.35;111088;1211;96613;-63
2023/03/31 03:55:32;;;;;;;9.90;3.80;;;;;;;7.91;92.04;99564.83;111162;1206;97667;-63
2023/03/31 03:57:58;;;;;;;8.60;4.00;;;;;;;7.91;91.99;99563.59;110908;1209;138839;-63
2023/03/31 04:00:24;;;;;;;11.20;4.30;;;;;;;7.92;91.97;99559.48;111021;1211;97694;-63
2023/03/31 04:02:50;;;;;;;8.90;4.00;;;;;;;7.91;92.02;99555.24;111086;1211;138680;-63
2023/03/31 04:05:15;;;;;;;8.10;3.60;;;;;;;7.90;92.00;99554.56;111065;1206;97685;-63
2023/03/31 04:07:40;;;;;;;8.90;4.70;;;;;;;7.91;92.08;99552.23;111062;1209;97652;-63
2023/03/31 04:10:07;;;;;;;11.30;4.30;;;;;;;7.92;92.14;99550.91;110976;1211;142709;-63
2023/03/31 04:12:35;;;;;;;10.50;4.20;;;;;;;7.94;92.06;99545.49;111084;1214;97685;-62
2023/03/31 04:15:01;;;;;;;9.00;3.90;;;;;;;7.94;91.97;99548.15;110962;1211;138371;-63
2023/03/31 04:17:33;;;;;;;12.10;4.40;;;;;;;7.95;92.09;99546.69;111111;1205;98848;-63
2023/03/31 04:20:06;;;;;;;7.80;3.80;;;;;;;7.97;92.17;99542.85;110983;1208;111871;-66
2023/03/31 04:22:39;;;;;;;7.80;4.00;;;;;;;7.99;92.18;99542.73;110813;1212;138921;-63
2023/03/31 04:25:09;;;;;;;9.60;3.20;;;;;;;8.01;92.17;99540.86;111034;1212;108081;-63
2023/03/31 04:27:35;;;;;;;7.30;3.50;;;;;;;8.04;92.23;99536.98;110917;1206;138399;-63
2023/03/31 04:30:00;;;;;;;13.80;4.20;;;;;;;8.06;92.27;99536.67;111086;1212;97642;-63
2023/03/31 04:32:27;;;;;;;9.50;3.80;;;;;;;8.09;92.28;99534.57;111027;1211;139778;-63
2023/03/31 04:35:01;;;;;;;9.30;4.10;;;;;;;8.10;92.22;99531.12;111044;1210;106850;-63
2023/03/31 04:37:33;;;;;;;13.80;4.40;;;;;;;8.12;92.43;99530.33;110943;1211;97601;-63
2023/03/31 04:40:07;;;;;;;9.40;3.50;;;;;;;8.14;92.38;99526.83;110999;1212;139614;-63
2023/03/31 04:42:33;;;;;;;5.80;3.80;;;;;;;8.16;92.28;99523.90;111074;1206;111568;-63
2023/03/31 04:44:58;;;;;;;8.70;3.60;;;;;;;8.18;92.36;99524.36;110921;1208;140531;-63
2023/03/31 04:47:23;;;;;;;7.60;3.50;;;;;;;8.18;92.30;99519.55;111001;1206;97684;-63
2023/03/31 04:49:48;;;;;;;15.90;3.60;;;;;;;8.20;92.24;99512.67;111099;1211;97674;-64
2023/03/31 04:52:14;;;;;;;8.60;3.70;;;;;;;8.20;92.26;99508.57;110949;1212;140509;-64
2023/03/31 04:54:39;;;;;;;16.60;4.60;;;;;;;8.22;92.23;99504.21;111051;1207;97667;-64
2023/03/31 04:57:04;;;;;;;11.40;5.30;;;;;;;8.24;92.27;99506.08;110919;1206;140832;-64
2023/03/31 04:59:29;;;;;;;13.90;4.60;;;;;;;8.25;92.27;99502.98;111120;1206;98284;-64
2023/03/31 05:01:55;;;;;;;14.30;4.10;;;;;;;8.25;92.16;99504.20;111001;1211;98909;-63
2023/03/31 05:04:20;;;;;;;12.80;5.30;;;;;;;8.26;92.08;99500.98;110962;1210;139784;-63
2023/03/31 05:06:45;;;;;;;15.30;5.70;;;;;;;8.27;92.17;99497.02;111088;1211;97639;-64
2023/03/31 05:09:11;;;;;;;15.80;5.50;;;;;;;8.27;92.21;99495.92;110923;1211;140065;-64
2023/03/31 05:11:37;;;;;;;14.10;5.20;;;;;;;8.28;92.14;99489.80;111075;1206;101255;-64
2023/03/31 05:14:02;;;;;;;16.70;6.00;;;;;;;8.31;92.23;99486.27;111059;1211;98290;-64
2023/03/31 05:16:27;;;;;;;12.10;5.20;;;;;;;8.33;92.24;99488.84;111076;1211;140018;-64
2023/03/31 05:18:53;;;;;;;11.60;5.10;;;;;;;8.36;92.17;99489.45;111003;1212;97718;-65
2023/03/31 05:21:20;;;;;;;12.40;4.70;;;;;;;8.37;92.17;99490.61;110993;1211;138886;-66
2023/03/31 05:23:45;;;;;;;9.50;4.70;;;;;;;8.40;92.27;99490.11;111131;1212;97712;-66
2023/03/31 05:26:12;;;;;;;11.20;5.70;;;;;;;8.42;92.21;99492.88;110939;1212;139563;-64
2023/03/31 05:28:38;;;;;;;15.80;5.00;;;;;;;8.44;92.13;99487.05;111169;1206;97626;-65
2023/03/31 05:31:04;;;;;;;17.90;5.50;;;;;;;8.46;92.13;99486.39;110961;1211;97654;-65
2023/03/31 05:33:30;;;;;;;16.30;4.70;;;;;;;8.48;92.14;99481.47;110970;1210;139097;-65
2023/03/31 05:35:56;;;;;;;11.00;4.60;;;;;;;8.52;92.14;99483.58;111032;1211;110491;-65
2023/03/31 05:38:21;;;;;;;13.70;4.00;;;;;;;8.55;92.21;99484.85;110998;1212;142633;-63
2023/03/31 05:40:47;;;;;;;10.30;3.70;;;;;;;8.58;92.05;99486.13;110875;1218;97714;-63
2023/03/31 05:43:13;;;;;;;14.80;4.30;;;;;;;8.60;92.15;99481.89;110943;1212;97586;-65
2023/03/31 05:45:38;;;;;;;10.80;4.10;;;;;;;8.64;92.15;99479.95;110873;1211;139043;-65
2023/03/31 05:48:04;;;;;;;13.10;4.70;;;;;;;8.66;92.11;99479.30;111062;1212;96909;-65
2023/03/31 05:50:30;;;;;;;13.70;5.20;;;;;;;8.68;92.04;99483.42;110824;1206;139592;-65
2023/03/31 05:52:56;;;;;;;12.40;4.30;;;;;;;8.71;92.03;99480.45;110987;1212;97587;-65
2023/03/31 05:55:22;;;;;;;10.30;4.10;;;;;;;8.74;92.09;99479.73;110946;1206;97641;-65
2023/03/31 05:57:47;;;;;;;8.80;3.40;;;;;;;8.77;92.16;99485.10;110701;1206;139306;-65
2023/03/31 06:00:13;;;;;;;7.40;2.80;;;;;;;8.81;92.04;99485.23;110867;1206;98938;-65
2023/03/31 06:02:39;;;;;;;12.20;3.00;;;;;;;8.84;91.97;99485.29;111054;1210;138850;-65
2023/03/31 06:05:05;;;;;;;13.00;3.60;;;;;;;8.86;92.03;99483.52;110875;1206;99936;-65
2023/03/31 06:07:31;;;;;;;9.80;3.20;;;;;;;8.90;92.03;99477.23;110740;1206;97767;-65
2023/03/31 06:09:56;;;;;;;5.90;3.10;;;;;;;8.93;92.05;99476.16;110810;1211;138311;-65
2023/03/31 06:12:21;;;;;;;12.60;4.00;;;;;;;8.98;92.05;99475.59;110782;1206;98050;-63
2023/03/31 06:14:46;;;;;;;9.70;3.30;;;;;;;9.02;92.01;99475.35;110871;1212;139196;-63
2023/03/31 06:17:12;;;;;;;8.00;3.20;;;;;;;9.05;92.01;99474.45;110902;1212;97584;-63
2023/03/31 06:19:37;;;;;;;6.80;3.00;;;;;;;9.07;91.95;99473.25;110756;1212;97915;-65
2023/03/31 06:22:02;;;;;;;7.30;3.00;;;;;;;9.09;91.84;99471.17;110769;1206;138907;-65
2023/03/31 06:24:27;;;;;;;8.00;3.20;;;;;;;9.12;91.92;99469.59;110844;1211;97648;-65
2023/03/31 06:26:53;;;;;;;8.60;3.10;;;;;;;9.17;91.91;99467.54;110902;1212;138323;-65
2023/03/31 06:29:18;;;;;;;6.70;3.30;;;;;;;9.20;91.91;99462.73;110994;1207;97632;-65
2023/03/31 06:31:43;;;;;;;11.00;2.90;;;;;;;9.25;91.83;99461.90;110895;1212;99115;-67
2023/03/31 06:34:08;;;;;;;8.80;3.20;;;;;;;9.30;91.84;99457.31;110761;1212;138272;-65
2023/03/31 06:36:34;;;;;;;6.40;2.70;;;;;;;9.36;91.79;99459.65;110850;1206;97604;-64
2023/03/31 06:38:59;;;;;;;6.70;3.10;;;;;;;9.42;91.84;99458.06;110844;1206;139957;-65
2023/03/31 06:41:25;;;;;;;8.60;3.20;;;;;;;9.49;91.76;99455.75;110990;1209;97663;-64
2023/03/31 06:43:50;;;;;;;7.70;3.00;;;;;;;9.54;91.76;99456.66;111007;1206;98094;-65
2023/03/31 06:46:16;;;;;;;7.40;3.00;;;;;;;9.58;91.60;99456.23;110876;1212;138775;-65
2023/03/31 06:48:41;;;;;;;8.90;3.10;;;;;;;9.61;91.59;99453.95;111049;1206;97572;-65
2023/03/31 06:51:09;;;;;;;7.00;2.80;;;;;;;9.64;91.63;99452.49;110942;1212;139461;-65
2023/03/31 06:53:34;;;;;;;13.30;2.90;;;;;;;9.70;91.54;99448.26;110970;1210;97722;-64
2023/03/31 06:56:00;;;;;;;8.20;3.20;;;;;;;9.72;91.44;99449.38;111051;1206;97625;-64
2023/03/31 06:58:25;;;;;;;6.70;3.10;;;;;;;9.75;91.43;99448.10;111011;1206;138146;-64
2023/03/31 07:00:51;;;;;;;10.20;3.70;;;;;;;9.80;91.34;99445.16;111047;1212;97612;-64
2023/03/31 07:03:17;;;;;;;10.70;3.30;;;;;;;9.86;91.34;99448.89;110939;1210;140074;-64
2023/03/31 07:05:48;;;;;;;10.10;3.40;;;;;;;9.92;91.26;99449.41;111036;1212;100006;-64
2023/03/31 07:08:13;;;;;;;;;;;;;;;9.95;91.04;99446.40;110847;1206;139472;-64
2023/03/31 07:10:39;;;;;;;9.40;3.40;;;;;;;9.97;90.94;99443.59;110868;1207;97826;-64
2023/03/31 07:13:04;;;;;;;13.90;3.20;;;;;;;10.01;90.80;99442.11;111113;1209;97658;-64
2023/03/31 07:15:29;;;;;;;12.20;3.70;;;;;;;10.06;90.88;99438.41;110838;1206;138760;-64
2023/03/31 07:18:01;;;;;;;10.70;3.60;;;;;;;10.10;90.76;99442.29;111072;1206;97690;-65
2023/03/31 07:20:28;;;;;;;6.20;2.40;;;;;;;10.13;90.69;99439.09;110861;1212;140688;-64
2023/03/31 07:22:54;;;;;;;6.00;2.50;;;;;;;10.18;90.66;99440.39;111065;1209;97605;-65
2023/03/31 07:25:19;;;;;;;12.60;3.80;;;;;;;10.23;90.68;99439.38;110988;1210;97607;-65
2023/03/31 07:27:45;;;;;;;8.50;2.60;;;;;;;10.29;90.61;99444.70;110797;1206;139084;-65
2023/03/31 07:30:16;;;;;;;7.90;2.90;;;;;;;10.34;90.44;99446.35;110856;1206;98027;-65
2023/03/31 07:32:45;;;;;;;9.20;3.30;;;;;;;10.42;90.49;99450.33;110790;1206;138753;-66
2023/03/31 07:35:10;;;;;;;12.10;3.10;;;;;;;10.47;90.36;99442.66;110932;1212;100089;-65
2023/03/31 07:37:42;;;;;;;8.60;3.00;;;;;;;10.53;90.09;99440.54;110887;1211;97810;-65
2023/03/31 07:40:11;;;;;;;7.30;2.80;;;;;;;10.57;89.91;99431.70;110872;1206;138443;-65
2023/03/31 07:42:36;;;;;;;8.90;3.30;;;;;;;10.60;90.00;99428.10;110970;1208;97585;-65
2023/03/31 07:45:04;;;;;;;12.70;3.60;;;;;;;10.66;90.04;99422.52;110900;1212;138972;-65
2023/03/31 07:47:30;;;;;;;9.40;2.90;;;;;;;10.71;89.93;99420.23;110883;1209;96595;-65
2023/03/31 07:49:55;;;;;;;16.30;3.60;;;;;;;10.78;89.88;99424.68;110994;1206;98505;-65
2023/03/31 07:52:22;;;;;;;17.20;3.40;;;;;;;10.84;89.78;99433.04;110242;1212;138961;-65
2023/03/31 07:54:47;;;;;;;10.70;4.00;;;;;;;10.87;89.52;99434.23;110813;1210;98264;-64
2023/03/31 07:57:13;;;;;;;8.30;2.90;;;;;;;10.92;89.46;99429.45;110803;1206;139892;-65
2023/03/31 07:59:38;;;;;;;10.80;3.20;;;;;;;10.96;89.13;99426.89;110988;1212;97649;-66
2023/03/31 08:02:04;;;;;;;15.00;2.90;;;;;;;10.99;89.11;99416.47;110918;1212;97621;-65
2023/03/31 08:04:29;;;;;;;12.30;2.50;;;;;;;11.10;89.39;99411.85;111020;1206;138513;-64
2023/03/31 08:06:54;;;;;;;7.90;3.20;;;;;;;11.23;89.15;99404.01;110910;1212;97646;-65
2023/03/31 08:09:21;;;;;;;10.30;3.10;;;;;;;11.36;89.19;99405.99;110872;1214;140039;-69
2023/03/31 08:11:47;;;;;;;10.50;3.20;;;;;;;11.45;88.47;99406.54;110909;1212;111997;-65
2023/03/31 08:14:12;;;;;;;12.80;3.10;;;;;;;11.49;88.53;99402.14;110825;1206;139442;-65
2023/03/31 08:16:38;;;;;;;12.50;3.60;;;;;;;11.54;88.51;99398.39;110931;1207;97743;-65
2023/03/31 08:19:03;;;;;;;5.60;3.30;;;;;;;11.61;88.51;99396.99;111027;1206;97661;-65
2023/03/31 08:21:29;;;;;;;7.90;3.30;;;;;;;11.69;88.55;99398.97;110786;1212;138878;-66
2023/03/31 08:23:55;;;;;;;9.30;3.80;;;;;;;11.78;88.46;99403.42;110866;1212;98488;-66
2023/03/31 08:26:20;;;;;;;9.50;2.80;;;;;;;11.78;87.78;99401.08;110718;1222;139859;-66
2023/03/31 08:28:49;;;;;;;10.20;3.00;;;;;;;11.75;87.57;99396.60;110827;1206;97589;-68
2023/03/31 08:31:16;;;;;;;11.20;3.80;;;;;;;11.72;87.12;99389.46;110848;1206;97655;-67
2023/03/31 08:33:42;;;;;;;12.30;4.30;;;;;;;11.71;87.36;99388.63;111021;1209;139269;-65
2023/03/31 08:36:09;;;;;;;8.70;3.70;;;;;;;11.71;87.12;99388.62;111058;1206;97638;-66
2023/03/31 08:38:40;;;;;;;11.20;3.70;;;;;;;11.78;87.22;99392.48;111014;1206;140426;-65
2023/03/31 08:41:17;;;;;;;13.90;3.60;;;;;;;11.85;87.08;99378.95;111054;1209;111480;-65
2023/03/31 08:43:47;;;;;;;8.40;2.70;;;;;;;11.90;86.96;99377.84;110909;1212;100091;-64
2023/03/31 08:46:16;;;;;;;8.50;3.00;;;;;;;11.96;86.75;99372.80;110828;1211;138413;-64
2023/03/31 08:48:49;;;;;;;9.50;2.90;;;;;;;12.01;85.61;99369.56;110896;1219;101602;-64
2023/03/31 08:51:26;;;;;;;6.70;2.70;;;;;;;12.12;86.40;99371.52;110950;1211;139199;-64
2023/03/31 08:54:06;;;;;;;6.20;2.50;;;;;;;12.24;86.39;99362.04;110830;1206;112022;-64
2023/03/31 08:56:38;;;;;;;9.10;3.10;;;;;;;12.39;86.44;99363.84;110792;1206;138651;-64
2023/03/31 08:59:06;;;;;;;11.30;3.40;;;;;;;12.59;86.35;99360.65;110859;1209;108222;-65
2023/03/31 09:01:55;;;;;;;11.00;3.40;;;;;;;12.69;86.14;99359.86;110704;1210;98989;-66
2023/03/31 09:04:35;;;;;;;16.10;3.60;;;;;;;12.76;85.78;99357.23;110754;1225;139157;-64
2023/03/31 09:07:27;;;;;;;13.80;3.60;;;;;;;12.81;85.77;99357.78;110990;1206;111514;-64
2023/03/31 09:10:02;;;;;;;12.10;3.00;;;;;;;12.83;85.35;99351.89;110867;1206;139269;-66
2023/03/31 09:12:45;;;;;;;10.50;2.70;;;;;;;12.82;84.81;99349.98;110936;1211;109092;-64
2023/03/31 09:15:17;;;;;;;9.40;2.90;;;;;;;12.84;84.92;99345.88;110899;1206;140132;-66
2023/03/31 09:17:45;;;;;;;8.30;2.70;;;;;;;12.97;84.73;99341.69;110973;1212;97597;-65
2023/03/31 09:20:31;;;;;;;11.60;3.00;;;;;;;13.03;84.10;99346.10;110930;1209;139124;-63
2023/03/31 09:23:09;;;;;;;9.50;2.80;;;;;;;13.11;84.44;99344.39;110975;1206;100106;-64
2023/03/31 09:25:40;;;;;;;8.60;2.60;;;;;;;13.23;84.24;99334.55;110946;1210;108062;-65
2023/03/31 09:28:20;;;;;;;11.00;2.80;;;;;;;13.36;84.15;99331.25;110838;1210;139305;-64
2023/03/31 09:30:50;;;;;;;9.30;3.00;;;;;;;13.49;83.94;99324.14;111134;1211;97681;-65
2023/03/31 09:33:39;;;;;;;8.40;3.10;;;;;;;13.59;83.91;99319.21;111017;1211;139152;-64
2023/03/31 09:36:15;;;;;;;10.80;3.00;;;;;;;13.71;83.33;99316.86;110996;1211;99859;-64
2023/03/31 09:38:42;;;;;;;7.80;3.20;;;;;;;13.71;82.87;99311.67;110882;1206;141208;-66
2023/03/31 09:41:10;;;;;;;9.90;3.30;;;;;;;13.75;82.96;99310.50;110950;1218;97574;-66
2023/03/31 09:43:37;;;;;;;8.50;3.00;;;;;;;13.79;82.18;99307.85;111085;1210;97985;-66
2023/03/31 09:46:11;;;;;;;6.60;2.60;;;;;;;13.84;82.62;99302.91;110785;1206;140582;-65
2023/03/31 09:48:38;;;;;;;14.50;3.20;;;;;;;13.94;82.56;99290.44;110822;1206;100680;-65
2023/03/31 09:51:06;;;;;;;9.40;2.70;;;;;;;14.12;82.58;99286.39;110891;1206;139266;-65
2023/03/31 09:53:31;;;;;;;9.30;3.00;;;;;;;14.25;82.05;99283.30;111005;1212;97592;-65
2023/03/31 09:56:03;;;;;;;8.20;2.90;;;;;;;14.36;81.95;99276.70;111023;1209;97577;-65
2023/03/31 09:58:28;;;;;;;5.80;2.80;;;;;;;14.51;81.85;99276.58;111003;1212;138082;-66
2023/03/31 10:01:06;;;;;;;9.70;3.30;;;;;;;14.60;81.62;99278.89;111026;1206;96618;-66
2023/03/31 10:03:35;;;;;;;9.00;2.80;;;;;;;14.63;81.33;99278.27;110957;1210;137943;-64
2023/03/31 10:06:08;;;;;;;6.50;2.20;;;;;;;14.69;80.93;99270.84;111054;1212;97609;-66
2023/03/31 10:08:41;;;;;;;12.40;2.70;;;;;;;14.78;80.86;99263.61;110934;1208;139059;-63
2023/03/31 10:11:10;;;;;;;10.60;2.80;;;;;;;14.85;80.42;99255.27;111118;1211;111365;-65
2023/03/31 10:13:57;;;;;;;9.90;2.60;;;;;;;14.93;80.22;99251.35;111006;1209;99863;-68
2023/03/31 10:16:22;;;;;;;12.20;3.30;;;;;;;14.91;79.93;99250.93;110595;1206;138064;-64
2023/03/31 10:18:50;;;;;;;12.50;2.70;;;;;;;14.96;79.55;99250.16;110902;1212;98942;-65
2023/03/31 10:21:34;;;;;;;7.30;2.70;;;;;;;14.99;79.06;99246.31;110812;1206;137967;-65
2023/03/31 10:24:00;;;;;;;8.70;2.90;;;;;;;14.89;77.74;99242.31;111008;1211;111448;-65
2023/03/31 10:26:28;;;;;;;6.30;2.20;;;;;;;14.83;78.34;99238.52;110777;1210;138126;-65
2023/03/31 10:28:54;;;;;;;7.30;2.00;;;;;;;14.81;78.11;99227.84;110879;1219;97726;-65
2023/03/31 10:31:24;;;;;;;6.90;2.70;;;;;;;14.81;77.91;99222.33;110926;1209;97635;-71
2023/03/31 10:33:51;;;;;;;11.20;2.50;;;;;;;14.84;77.80;99221.14;110787;1206;137212;-65
2023/03/31 10:36:26;;;;;;;8.50;2.30;;;;;;;14.84;77.57;99218.46;110863;1209;98076;-65
2023/03/31 10:38:53;;;;;;;7.30;2.50;;;;;;;14.86;77.29;99218.63;111018;1206;138741;-65
2023/03/31 10:41:24;;;;;;;11.00;2.90;;;;;;;14.89;77.07;99218.40;110863;1206;97651;-65
2023/03/31 10:43:55;;;;;;;9.10;2.90;;;;;;;14.99;77.06;99214.90;111210;1209;96066;-64
2023/03/31 10:46:41;;;;;;;10.20;2.90;;;;;;;15.05;76.81;99208.02;110912;1212;139273;-65
2023/03/31 10:49:25;;;;;;;8.20;2.50;;;;;;;15.14;76.65;99198.48;110862;1209;111223;-64
2023/03/31 10:51:53;;;;;;;8.60;3.10;;;;;;;15.28;76.68;99187.43;110884;1210;138589;-65
2023/03/31 10:54:18;;;;;;;6.10;3.10;;;;;;;15.43;76.52;99184.27;110816;1209;108658;-65
2023/03/31 10:56:47;;;;;;;8.40;2.80;;;;;;;15.57;76.07;99177.11;110870;1212;138815;-65
2023/03/31 10:59:40;;;;;;;10.50;2.70;;;;;;;15.71;76.13;99176.03;110917;1207;97604;-64
2023/03/31 11:02:26;;;;;;;13.60;2.80;;;;;;;15.85;75.90;99172.48;111114;1212;111647;-65
2023/03/31 11:05:13;;;;;;;9.60;3.10;;;;;;;15.94;75.68;99172.17;110814;1211;100045;-64
2023/03/31 11:08:22;;;;;;;7.60;2.80;;;;;;;16.12;74.99;99173.33;110833;1209;99417;-64
2023/03/31 11:11:05;;;;;;;9.00;2.80;;;;;;;16.02;73.51;99171.33;110807;1222;97883;-64
2023/03/31 11:13:47;;;;;;;10.80;2.70;;;;;;;15.96;73.32;99170.62;110708;1212;96495;-64
2023/03/31 11:16:20;;;;;;;10.00;3.00;;;;;;;15.99;73.84;99170.16;110879;1209;138642;-63
2023/03/31 11:19:21;;;;;;;9.90;2.80;;;;;;;15.98;73.33;99170.06;111036;1211;99157;-65
2023/03/31 11:21:53;;;;;;;;;;;;;;;15.89;72.69;99163.97;110890;1222;138216;-64
2023/03/31 11:24:37;;;;;;;;;;;;;;;15.86;72.46;99162.29;111019;1206;97697;-65
2023/03/31 11:27:16;;;;;;;8.40;3.00;;;;;;;15.82;72.03;99161.52;110940;1206;129095;-64
2023/03/31 11:29:54;;;;;;;9.60;2.80;;;;;;;15.80;71.84;99154.55;110960;1211;110791;-64
2023/03/31 11:32:26;;;;;;;7.50;2.50;;;;;;;15.82;71.74;99150.40;110900;1227;139255;-63
2023/03/31 11:35:15;;;;;;;6.90;2.70;;;;;;;15.80;71.17;99151.27;110939;1209;108105;-66
2023/03/31 11:37:49;;;;;;;9.40;2.80;;;;;;;15.72;70.95;99146.30;110887;1206;98461;-64
2023/03/31 11:40:33;;;;;;;8.50;2.50;;;;;;;15.64;70.54;99148.23;110709;1209;138712;-65